Aérodrome :
LOGIN :

S'inscrire | Disclaimer

   EN    FR    IT 

 










Légende :    VFR   VFR Marginal   IFR   IFR Intensif   IFR Très Intensif
Visi : 
Plafond : 
>= 8 km
>= 3000ft
5 à 8 km
1000 à 3000 ft
1500m à 5 km
500 à 1000 ft
800 à 1500m
200 à 500 ft
< 800m
< 200 ft
Symboles :   Orages  Brouillard  Fortes neiges  Fortes précipitations  Vent > 20 kt
SIGMETs :   Divers  Orages  Givrage  Turbulence  Onde Orograph.  Cendres Volcan.






- Altitude de l'aérodrome : 29 ft


LIRM - Grazzanise Caserta

DERNIER METAR :
  • 240755Z 11005KT 9999 -TSRA SCT015 FEW020CB SCT030 11/06 Q1008

METARs EXPIRÉS :
  • 240720Z 12008KT 9999 -TSRA SCT015 FEW020CB SCT030 10/09 Q1008 RMK BKN VIS MIN 9999 WIND THR06 01006KT BLU
  • 240705Z 05007KT 9999 TS SCT020 FEW022CB SCT030 10/08 Q1008 RMK BKN VIS MIN 9999 WIND THR06 11008KT BLU
  • 240555Z 08010KT 7000 -RA SCT020 FEW022CB BKN030 08/06 Q1008
  • 240455Z 01003KT 9999 SCT025 FEW030CB SCT060 07/05 Q1008 RMK BKN VIS MIN 9999 WIND THR06 04004KT BLU
  • 240355Z 03006KT 9999 -RA FEW025CB SCT030 BKN060 07/06 Q1008 RETS RMK OVC VIS MIN 9999 WIND THR06 08006KT BLU

TAF TAF LIRM
Valide du 24 à 09h jusqu'au 24 à 18h UTC


240800Z 2409/2418 22012KT 9999 SCT015 SCT030
TEMPO 2409/2415 4000 TSRA FEW015CB BKN030



MET'MAP, la Météo Aéronautique d'un coup d'oeil ! - Copyright ORBIFLY Décembre 2007 - Disclaimer

ORBIFLY MET'MAP TEAM :

Programmation & Développement : Alexandra Zaïnal
Sur une idée originale de : Baudouin d'Aumeries
Soutien technique & logistique : Manuel Goepfert
Assistance : Marc-Olivier Méhu




SOURCES & CREDITS :

   NOAA